Time;durP1;ratioP1;P1;durP2;ratioP2;P2;SDS_P1;SDS_P2;PMS_P1;PMS_P2;Temp;Humidity;BMP_temperature;BMP_pressure;BME280_temperature;BME280_humidity;BME280_pressure;Samples;Min_cycle;Max_cycle;Signal;HPM_P1;HPM_P2
2022/04/03 00:02:12;;;;;;;2.17;2.03;;;;;;;;;;5023868;28;20685;-67
2022/04/03 00:04:59;;;;;;;2.10;2.00;;;;;;;;;;5025678;28;20212;-67
2022/04/03 00:07:47;;;;;;;2.20;1.70;;;;;;;;;;5022910;28;20251;-67
2022/04/03 00:10:36;;;;;;;1.73;1.63;;;;;;;;;;5027370;28;20218;-67
2022/04/03 00:13:22;;;;;;;2.50;1.90;;;;;;;;;;5021371;28;20268;-69
2022/04/03 00:16:09;;;;;;;1.90;1.80;;;;;;;;;;5028062;28;20297;-68
2022/04/03 00:18:56;;;;;;;1.80;1.70;;;;;;;;;;5020972;28;20300;-68
2022/04/03 00:21:43;;;;;;;1.97;1.87;;;;;;;;;;5024929;28;20668;-67
2022/04/03 00:24:30;;;;;;;2.00;1.90;;;;;;;;;;5020366;28;20285;-67
2022/04/03 00:27:19;;;;;;;2.20;2.10;;;;;;;;;;5024562;28;20581;-67
2022/04/03 00:30:07;;;;;;;2.27;2.07;;;;;;;;;;5018931;28;20237;-67
2022/04/03 00:32:53;;;;;;;2.13;1.90;;;;;;;;;;5025209;28;20318;-67
2022/04/03 00:35:41;;;;;;;1.93;1.83;;;;;;;;;;5024591;28;20382;-67
2022/04/03 00:38:28;;;;;;;2.60;2.40;;;;;;;;;;5025521;28;20212;-68
2022/04/03 00:41:15;;;;;;;2.20;2.00;;;;;;;;;;5021610;28;20217;-67
2022/04/03 00:44:04;;;;;;;2.40;2.20;;;;;;;;;;5027337;28;20574;-67
2022/04/03 00:46:52;;;;;;;2.50;2.30;;;;;;;;;;5024628;28;20253;-68
2022/04/03 00:49:39;;;;;;;2.40;2.30;;;;;;;;;;5028549;28;20348;-67
2022/04/03 00:52:26;;;;;;;2.83;2.63;;;;;;;;;;5021008;28;20697;-67
2022/04/03 00:55:14;;;;;;;2.20;2.10;;;;;;;;;;5024613;28;20678;-67
2022/04/03 00:58:02;;;;;;;2.20;2.10;;;;;;;;;;5022954;28;20232;-67
2022/04/03 01:00:50;;;;;;;2.53;2.40;;;;;;;;;;5025706;28;20300;-67
2022/04/03 01:03:37;;;;;;;2.47;2.20;;;;;;;;;;5021103;28;20228;-67
2022/04/03 01:06:24;;;;;;;2.43;2.33;;;;;;;;;;5021878;28;20292;-68
2022/04/03 01:09:12;;;;;;;2.53;2.00;;;;;;;;;;5022976;28;20642;-67
2022/04/03 01:11:59;;;;;;;2.37;1.97;;;;;;;;;;5025338;28;20236;-67
2022/04/03 01:14:46;;;;;;;2.50;2.30;;;;;;;;;;5024238;28;20378;-67
2022/04/03 01:17:34;;;;;;;2.33;2.13;;;;;;;;;;5022084;28;20217;-68
2022/04/03 01:20:21;;;;;;;2.50;2.37;;;;;;;;;;5023519;28;20291;-67
2022/04/03 01:23:08;;;;;;;2.20;2.00;;;;;;;;;;5023487;28;20700;-67
2022/04/03 01:25:56;;;;;;;2.07;1.97;;;;;;;;;;5021922;28;20714;-67
2022/04/03 01:28:43;;;;;;;2.30;1.63;;;;;;;;;;5027672;28;20302;-67
2022/04/03 01:31:30;;;;;;;3.00;2.20;;;;;;;;;;5022331;28;20213;-68
2022/04/03 01:34:19;;;;;;;2.50;2.37;;;;;;;;;;5022571;28;20256;-67
2022/04/03 01:37:06;;;;;;;2.50;2.30;;;;;;;;;;5024229;28;20271;-68
2022/04/03 01:39:53;;;;;;;1.93;1.83;;;;;;;;;;5016559;28;20651;-67
2022/04/03 01:42:41;;;;;;;2.33;2.10;;;;;;;;;;5024198;28;20404;-67
2022/04/03 01:45:28;;;;;;;2.00;1.90;;;;;;;;;;5021235;28;20285;-67
2022/04/03 01:48:15;;;;;;;1.87;1.77;;;;;;;;;;5020342;28;20323;-68
2022/04/03 01:51:02;;;;;;;2.03;1.90;;;;;;;;;;5027021;28;20697;-67
2022/04/03 01:53:49;;;;;;;1.73;1.63;;;;;;;;;;5020358;28;20843;-67
2022/04/03 01:56:36;;;;;;;1.90;1.80;;;;;;;;;;5021841;28;20681;-67
2022/04/03 01:59:24;;;;;;;1.70;1.60;;;;;;;;;;5020645;28;20198;-68
2022/04/03 02:02:11;;;;;;;2.33;2.03;;;;;;;;;;5025173;28;20290;-67
2022/04/03 02:04:58;;;;;;;2.10;1.93;;;;;;;;;;5018574;28;20212;-67
2022/04/03 02:07:45;;;;;;;2.00;1.90;;;;;;;;;;5022268;28;20791;-67
2022/04/03 02:10:32;;;;;;;1.70;1.60;;;;;;;;;;5021136;28;20291;-67
2022/04/03 02:13:19;;;;;;;2.00;1.90;;;;;;;;;;5024152;28;20252;-69
2022/04/03 02:16:09;;;;;;;1.73;1.50;;;;;;;;;;5022807;28;20597;-67
2022/04/03 02:18:56;;;;;;;1.87;1.77;;;;;;;;;;5023930;28;20206;-68
2022/04/03 02:21:43;;;;;;;2.30;2.10;;;;;;;;;;5018349;28;20705;-67
2022/04/03 02:24:30;;;;;;;1.87;1.77;;;;;;;;;;5022725;28;20228;-67
2022/04/03 02:27:17;;;;;;;1.97;1.87;;;;;;;;;;5019772;28;20339;-67
2022/04/03 02:30:05;;;;;;;1.90;1.80;;;;;;;;;;5022555;28;20241;-67
2022/04/03 02:32:54;;;;;;;1.80;1.70;;;;;;;;;;5021144;28;20307;-67
2022/04/03 02:35:41;;;;;;;1.80;1.70;;;;;;;;;;5019449;28;20287;-67
2022/04/03 02:38:28;;;;;;;2.17;1.97;;;;;;;;;;5018789;28;20758;-67
2022/04/03 02:41:15;;;;;;;1.87;1.50;;;;;;;;;;5019614;28;20700;-67
2022/04/03 02:44:03;;;;;;;1.60;1.50;;;;;;;;;;5016180;28;20743;-68
2022/04/03 02:46:50;;;;;;;1.67;1.57;;;;;;;;;;5022850;28;20212;-67
2022/04/03 02:49:38;;;;;;;1.83;1.73;;;;;;;;;;5019108;28;20320;-69
2022/04/03 02:52:25;;;;;;;2.00;1.90;;;;;;;;;;5022453;28;20601;-68
2022/04/03 02:55:12;;;;;;;1.77;1.67;;;;;;;;;;5020977;28;20291;-68
2022/04/03 02:57:59;;;;;;;2.00;1.90;;;;;;;;;;5020607;28;20208;-68
2022/04/03 03:00:46;;;;;;;1.87;1.73;;;;;;;;;;5019544;28;20319;-67
2022/04/03 03:03:33;;;;;;;1.80;1.70;;;;;;;;;;5024889;28;20257;-72
2022/04/03 03:06:21;;;;;;;1.60;1.50;;;;;;;;;;5021260;28;20321;-69
2022/04/03 03:09:08;;;;;;;1.73;1.63;;;;;;;;;;5021531;28;20669;-67
2022/04/03 03:11:55;;;;;;;1.80;1.70;;;;;;;;;;5018869;28;20240;-68
2022/04/03 03:14:42;;;;;;;1.63;1.50;;;;;;;;;;5022575;28;20272;-68
2022/04/03 03:17:29;;;;;;;1.60;1.50;;;;;;;;;;5023247;28;20205;-67
2022/04/03 03:20:16;;;;;;;1.80;1.70;;;;;;;;;;5019303;28;20245;-68
2022/04/03 03:23:05;;;;;;;1.73;1.63;;;;;;;;;;5024799;28;20212;-67
2022/04/03 03:25:52;;;;;;;2.00;1.90;;;;;;;;;;5022843;28;20248;-67
2022/04/03 03:28:39;;;;;;;1.70;1.60;;;;;;;;;;5023899;28;20292;-68
2022/04/03 03:31:26;;;;;;;2.17;2.00;;;;;;;;;;5017378;28;20280;-68
2022/04/03 03:34:13;;;;;;;1.70;1.60;;;;;;;;;;5018596;28;20323;-67
2022/04/03 03:37:00;;;;;;;2.00;1.90;;;;;;;;;;5021406;28;20276;-68
2022/04/03 03:39:48;;;;;;;1.63;1.53;;;;;;;;;;5014496;28;20762;-68
2022/04/03 03:42:35;;;;;;;1.83;1.73;;;;;;;;;;5024909;28;20209;-67
2022/04/03 03:45:22;;;;;;;1.90;1.80;;;;;;;;;;5015423;28;20549;-68
2022/04/03 03:48:10;;;;;;;1.93;1.73;;;;;;;;;;5020870;28;20655;-68
2022/04/03 03:50:57;;;;;;;1.60;1.50;;;;;;;;;;5022724;28;20220;-68
2022/04/03 03:53:44;;;;;;;2.03;1.90;;;;;;;;;;5022862;28;20369;-68
2022/04/03 03:56:32;;;;;;;2.00;1.90;;;;;;;;;;5018279;28;20368;-68
2022/04/03 03:59:19;;;;;;;1.50;1.50;;;;;;;;;;5021724;28;20213;-67
2022/04/03 04:02:06;;;;;;;1.70;1.60;;;;;;;;;;5015811;28;20209;-67
2022/04/03 04:04:53;;;;;;;1.40;1.40;;;;;;;;;;5022434;28;20289;-68
2022/04/03 04:07:42;;;;;;;1.80;1.70;;;;;;;;;;5019707;28;20205;-67
2022/04/03 04:10:29;;;;;;;1.80;1.70;;;;;;;;;;5025707;28;20274;-68
2022/04/03 04:13:17;;;;;;;1.70;1.60;;;;;;;;;;5023787;28;20292;-68
2022/04/03 04:16:05;;;;;;;1.40;1.40;;;;;;;;;;5028040;28;20262;-67
2022/04/03 04:18:52;;;;;;;1.70;1.60;;;;;;;;;;5024182;28;20245;-67
2022/04/03 04:21:39;;;;;;;1.50;1.50;;;;;;;;;;5023444;28;20213;-68
2022/04/03 04:24:25;;;;;;;2.00;1.57;;;;;;;;;;5019688;28;20585;-68
2022/04/03 04:27:12;;;;;;;1.50;1.40;;;;;;;;;;5025893;28;20308;-67
2022/04/03 04:30:01;;;;;;;1.60;1.50;;;;;;;;;;5021552;28;20611;-68
2022/04/03 04:32:47;;;;;;;1.57;1.50;;;;;;;;;;5023445;28;20236;-67
2022/04/03 04:35:35;;;;;;;1.87;1.77;;;;;;;;;;5024545;28;20321;-68
2022/04/03 04:38:22;;;;;;;1.77;1.67;;;;;;;;;;5019835;28;20214;-68
2022/04/03 04:41:08;;;;;;;2.00;1.90;;;;;;;;;;5023329;28;20291;-67
2022/04/03 04:43:55;;;;;;;1.80;1.70;;;;;;;;;;5026392;28;20240;-67
2022/04/03 04:46:44;;;;;;;1.83;1.73;;;;;;;;;;5021432;28;20248;-68
2022/04/03 04:49:31;;;;;;;1.87;1.47;;;;;;;;;;5022257;28;20242;-67
2022/04/03 04:52:17;;;;;;;2.10;1.50;;;;;;;;;;5023150;28;20311;-68
2022/04/03 04:55:06;;;;;;;1.93;1.83;;;;;;;;;;5022951;28;20321;-67
2022/04/03 04:57:56;;;;;;;1.80;1.70;;;;;;;;;;5023426;28;20218;-67
2022/04/03 05:00:43;;;;;;;1.93;1.83;;;;;;;;;;5025023;28;20206;-67
2022/04/03 05:03:31;;;;;;;1.83;1.73;;;;;;;;;;5023067;28;20212;-70
2022/04/03 05:06:18;;;;;;;1.60;1.50;;;;;;;;;;5022311;28;20284;-67
2022/04/03 05:09:06;;;;;;;1.80;1.70;;;;;;;;;;5023060;28;20209;-73
2022/04/03 05:11:53;;;;;;;1.90;1.80;;;;;;;;;;5024368;28;20772;-67
2022/04/03 05:14:40;;;;;;;1.53;1.50;;;;;;;;;;5026236;28;20258;-67
2022/04/03 05:17:28;;;;;;;1.97;1.87;;;;;;;;;;5028032;28;20213;-68
2022/04/03 05:20:17;;;;;;;1.73;1.63;;;;;;;;;;5024753;28;20301;-69
2022/04/03 05:23:04;;;;;;;1.50;1.40;;;;;;;;;;5025135;28;20214;-67
2022/04/03 05:25:51;;;;;;;1.90;1.80;;;;;;;;;;5021266;28;20678;-67
2022/04/03 05:28:38;;;;;;;1.50;1.40;;;;;;;;;;5025048;28;20209;-68
2022/04/03 05:31:26;;;;;;;1.80;1.70;;;;;;;;;;5021750;28;20268;-69
2022/04/03 05:34:13;;;;;;;1.70;1.60;;;;;;;;;;5020932;28;20210;-67
2022/04/03 05:37:01;;;;;;;1.40;1.30;;;;;;;;;;5027205;28;20229;-68
2022/04/03 05:39:49;;;;;;;1.77;1.50;;;;;;;;;;5022642;28;20202;-68
2022/04/03 05:42:36;;;;;;;1.40;1.30;;;;;;;;;;5021073;28;20299;-68
2022/04/03 05:45:24;;;;;;;1.37;1.37;;;;;;;;;;5022015;28;20263;-68
2022/04/03 05:48:11;;;;;;;1.50;1.40;;;;;;;;;;5026360;28;20280;-81
2022/04/03 05:50:58;;;;;;;1.77;1.67;;;;;;;;;;5022710;28;20260;-68
2022/04/03 05:53:47;;;;;;;1.60;1.50;;;;;;;;;;5023653;28;20271;-68
2022/04/03 05:56:34;;;;;;;1.97;1.80;;;;;;;;;;5024325;28;20227;-68
2022/04/03 05:59:21;;;;;;;2.00;1.90;;;;;;;;;;5024264;28;20219;-69
2022/04/03 06:02:08;;;;;;;1.87;1.77;;;;;;;;;;5022753;28;20297;-68
2022/04/03 06:04:55;;;;;;;1.87;1.77;;;;;;;;;;5024262;28;20318;-67
2022/04/03 06:07:42;;;;;;;1.60;1.50;;;;;;;;;;5022398;28;20289;-68
2022/04/03 06:10:30;;;;;;;1.67;1.57;;;;;;;;;;5022843;28;20206;-69
2022/04/03 06:13:17;;;;;;;1.67;1.57;;;;;;;;;;5024900;28;20210;-68
2022/04/03 06:16:05;;;;;;;2.10;1.70;;;;;;;;;;5024831;28;20231;-68
2022/04/03 06:18:53;;;;;;;1.60;1.50;;;;;;;;;;5022864;28;20217;-68
2022/04/03 06:21:40;;;;;;;1.47;1.47;;;;;;;;;;5021658;28;20738;-67
2022/04/03 06:24:27;;;;;;;1.80;1.70;;;;;;;;;;5020974;28;20290;-68
2022/04/03 06:27:15;;;;;;;1.73;1.63;;;;;;;;;;5025440;28;20245;-68
2022/04/03 06:30:03;;;;;;;1.97;1.87;;;;;;;;;;5019068;28;20241;-67
2022/04/03 06:32:50;;;;;;;2.00;1.60;;;;;;;;;;5020587;28;20297;-67
2022/04/03 06:35:37;;;;;;;1.60;1.50;;;;;;;;;;5019963;28;20228;-68
2022/04/03 06:38:24;;;;;;;1.80;1.70;;;;;;;;;;5017707;28;20640;-68
2022/04/03 06:41:11;;;;;;;1.87;1.77;;;;;;;;;;5021076;28;20684;-67
2022/04/03 06:44:00;;;;;;;2.20;2.10;;;;;;;;;;5017195;28;20208;-67
2022/04/03 06:46:47;;;;;;;2.80;2.60;;;;;;;;;;5018382;28;20211;-68
2022/04/03 06:49:34;;;;;;;3.15;2.88;;;;;;;;;;5021509;28;20703;-65
2022/04/03 06:52:21;;;;;;;3.17;2.97;;;;;;;;;;5018610;28;20246;-66
2022/04/03 06:55:09;;;;;;;2.90;2.70;;;;;;;;;;5022166;28;20240;-66
2022/04/03 06:57:56;;;;;;;2.80;2.60;;;;;;;;;;5019782;28;20234;-65
2022/04/03 07:00:44;;;;;;;3.10;2.90;;;;;;;;;;5017225;28;20216;-67
2022/04/03 07:03:32;;;;;;;3.10;2.90;;;;;;;;;;5018039;28;20310;-66
2022/04/03 07:06:19;;;;;;;3.30;3.00;;;;;;;;;;5017151;28;20207;-66
2022/04/03 07:09:06;;;;;;;2.88;2.67;;;;;;;;;;5023818;28;20299;-66
2022/04/03 07:11:53;;;;;;;2.65;2.45;;;;;;;;;;5022172;28;20741;-66
2022/04/03 07:14:40;;;;;;;3.10;2.90;;;;;;;;;;5022165;28;20684;-64
2022/04/03 07:17:28;;;;;;;2.83;2.63;;;;;;;;;;5018476;28;20231;-64
2022/04/03 07:20:15;;;;;;;3.05;2.85;;;;;;;;;;5021762;28;20742;-65
2022/04/03 07:23:02;;;;;;;2.80;2.60;;;;;;;;;;5020092;28;20347;-65
2022/04/03 07:25:49;;;;;;;3.25;2.75;;;;;;;;;;5017063;28;20555;-65
2022/04/03 07:28:36;;;;;;;2.90;2.70;;;;;;;;;;5018591;28;20331;-66
2022/04/03 07:31:23;;;;;;;2.78;2.63;;;;;;;;;;5021762;28;20213;-64
2022/04/03 07:34:11;;;;;;;2.70;2.50;;;;;;;;;;5021564;28;20221;-65
2022/04/03 07:36:58;;;;;;;2.70;2.50;;;;;;;;;;5019376;28;20321;-65
2022/04/03 07:39:45;;;;;;;2.58;2.40;;;;;;;;;;5021311;28;20704;-66
2022/04/03 07:42:32;;;;;;;2.28;2.17;;;;;;;;;;5021746;28;20271;-65
2022/04/03 07:45:19;;;;;;;2.70;2.50;;;;;;;;;;5025219;28;20305;-66
2022/04/03 07:48:07;;;;;;;2.08;1.90;;;;;;;;;;5023373;28;20261;-65
2022/04/03 07:50:56;;;;;;;2.03;1.92;;;;;;;;;;5023967;28;20209;-65
2022/04/03 07:53:42;;;;;;;2.05;1.92;;;;;;;;;;5022530;28;20311;-65
2022/04/03 07:56:30;;;;;;;2.08;1.98;;;;;;;;;;5022509;28;20253;-65
2022/04/03 07:59:17;;;;;;;1.83;1.73;;;;;;;;;;5022234;28;20209;-65
2022/04/03 08:02:04;;;;;;;1.90;1.80;;;;;;;;;;5020084;28;20255;-66
2022/04/03 08:04:51;;;;;;;1.88;1.77;;;;;;;;;;5023514;28;20235;-66
2022/04/03 08:07:43;;;;;;;1.60;1.50;;;;;;;;;;5025055;28;20251;-65
2022/04/03 08:10:30;;;;;;;1.73;1.63;;;;;;;;;;5026694;28;20287;-65
2022/04/03 08:13:17;;;;;;;1.38;1.38;;;;;;;;;;5024066;28;20224;-65
2022/04/03 08:16:05;;;;;;;1.60;1.50;;;;;;;;;;5022796;28;20221;-64
2022/04/03 08:18:52;;;;;;;1.60;1.50;;;;;;;;;;5027237;28;20228;-64
2022/04/03 08:21:39;;;;;;;1.40;1.40;;;;;;;;;;5021425;28;20216;-65
2022/04/03 08:24:27;;;;;;;1.60;1.50;;;;;;;;;;5020504;28;20775;-65
2022/04/03 08:27:14;;;;;;;1.85;1.75;;;;;;;;;;5027840;28;20713;-65
2022/04/03 08:30:01;;;;;;;1.40;1.30;;;;;;;;;;5019599;28;20366;-67
2022/04/03 08:32:48;;;;;;;1.40;1.40;;;;;;;;;;5021680;28;20242;-67
2022/04/03 08:35:38;;;;;;;1.25;1.25;;;;;;;;;;5022019;28;20736;-70
2022/04/03 08:38:25;;;;;;;1.45;1.38;;;;;;;;;;5019669;28;20258;-67
2022/04/03 08:41:13;;;;;;;1.60;1.50;;;;;;;;;;5018530;28;20335;-67
2022/04/03 08:44:00;;;;;;;1.38;1.30;;;;;;;;;;5023201;28;20683;-67
2022/04/03 08:46:49;;;;;;;1.75;1.65;;;;;;;;;;5018926;28;20211;-67
2022/04/03 08:49:38;;;;;;;1.63;1.52;;;;;;;;;;5022726;28;20374;-68
2022/04/03 08:52:25;;;;;;;1.25;1.15;;;;;;;;;;5025980;28;20258;-67
2022/04/03 08:55:12;;;;;;;1.20;1.20;;;;;;;;;;5024672;28;20353;-68
2022/04/03 08:58:02;;;;;;;1.27;1.17;;;;;;;;;;5022685;28;21338;-68
2022/04/03 09:00:49;;;;;;;1.35;1.30;;;;;;;;;;5021447;28;20480;-67
2022/04/03 09:03:37;;;;;;;1.10;1.10;;;;;;;;;;5020423;28;20287;-68
2022/04/03 09:06:24;;;;;;;1.08;1.08;;;;;;;;;;5022403;28;20215;-67
2022/04/03 09:09:21;;;;;;;1.10;1.10;;;;;;;;;;5022851;28;20370;-67
2022/04/03 09:12:10;;;;;;;1.00;1.00;;;;;;;;;;5019114;28;20895;-67
2022/04/03 09:14:59;;;;;;;1.40;1.30;;;;;;;;;;5024399;28;20247;-69
2022/04/03 09:17:49;;;;;;;1.43;1.33;;;;;;;;;;5019704;28;20343;-67
2022/04/03 09:20:37;;;;;;;1.00;1.00;;;;;;;;;;5024374;28;20671;-68
2022/04/03 09:23:26;;;;;;;1.00;1.00;;;;;;;;;;5020245;28;20206;-67
2022/04/03 09:26:18;;;;;;;1.10;1.00;;;;;;;;;;5017976;28;20207;-67
2022/04/03 09:29:13;;;;;;;1.10;1.00;;;;;;;;;;5022573;28;20221;-67
2022/04/03 09:32:02;;;;;;;0.77;0.77;;;;;;;;;;5016403;28;20215;-67
2022/04/03 09:34:49;;;;;;;0.90;0.90;;;;;;;;;;5023423;28;20241;-66
2022/04/03 09:37:37;;;;;;;1.00;1.00;;;;;;;;;;5018947;28;20318;-67
2022/04/03 09:40:30;;;;;;;1.00;1.00;;;;;;;;;;5021189;28;20241;-67
2022/04/03 09:43:20;;;;;;;1.00;1.00;;;;;;;;;;5025915;28;20220;-66
2022/04/03 09:46:10;;;;;;;1.03;1.03;;;;;;;;;;5020965;28;20291;-68
2022/04/03 09:49:00;;;;;;;1.43;0.80;;;;;;;;;;5019369;28;20270;-67
2022/04/03 09:51:47;;;;;;;0.93;0.93;;;;;;;;;;5022680;28;20269;-67
2022/04/03 09:54:34;;;;;;;1.27;0.97;;;;;;;;;;5021882;28;20209;-67
2022/04/03 09:57:23;;;;;;;0.87;0.87;;;;;;;;;;5023056;28;20231;-67
2022/04/03 10:00:11;;;;;;;0.90;0.90;;;;;;;;;;5022928;28;20619;-67
2022/04/03 10:03:00;;;;;;;0.93;0.90;;;;;;;;;;5021913;28;20213;-67
2022/04/03 10:05:49;;;;;;;1.00;0.90;;;;;;;;;;5015122;28;20211;-67
2022/04/03 10:08:37;;;;;;;1.13;0.80;;;;;;;;;;5021740;28;20297;-67
2022/04/03 10:11:24;;;;;;;2.67;1.23;;;;;;;;;;5024983;28;20296;-67
2022/04/03 10:14:12;;;;;;;0.73;0.73;;;;;;;;;;5025027;28;20247;-66
2022/04/03 10:16:58;;;;;;;0.80;0.80;;;;;;;;;;5025389;28;20235;-67
2022/04/03 10:19:46;;;;;;;2.17;1.00;;;;;;;;;;5024359;28;20239;-67
2022/04/03 10:22:38;;;;;;;0.93;0.90;;;;;;;;;;5017300;28;20292;-67
2022/04/03 10:25:29;;;;;;;0.70;0.70;;;;;;;;;;5020671;28;20215;-66
2022/04/03 10:28:19;;;;;;;0.70;0.70;;;;;;;;;;5023128;28;20292;-67
2022/04/03 10:31:07;;;;;;;0.83;0.83;;;;;;;;;;5022815;28;20328;-67
2022/04/03 10:33:54;;;;;;;0.97;0.80;;;;;;;;;;5018339;28;20266;-66
2022/04/03 10:36:47;;;;;;;0.90;0.90;;;;;;;;;;5022524;28;20331;-66
2022/04/03 10:39:37;;;;;;;0.83;0.83;;;;;;;;;;5020726;28;20270;-66
2022/04/03 10:42:29;;;;;;;1.33;1.27;;;;;;;;;;5019407;28;20258;-67
2022/04/03 10:45:18;;;;;;;1.40;1.10;;;;;;;;;;5026060;28;20691;-67
2022/04/03 10:48:28;;;;;;;1.00;1.00;;;;;;;;;;5021532;28;20203;-67
2022/04/03 10:51:26;;;;;;;1.40;1.20;;;;;;;;;;5023365;28;20683;-67
2022/04/03 10:54:13;;;;;;;1.57;1.47;;;;;;;;;;5017208;28;20681;-67
2022/04/03 10:57:37;;;;;;;1.47;1.43;;;;;;;;;;5021160;28;20234;-67
2022/04/03 11:00:37;;;;;;;1.50;1.40;;;;;;;;;;5017773;28;20211;-66
2022/04/03 11:03:34;;;;;;;2.00;1.87;;;;;;;;;;5018602;28;20201;-66
2022/04/03 11:06:32;;;;;;;1.60;1.50;;;;;;;;;;5021063;28;20211;-66
2022/04/03 11:09:24;;;;;;;1.47;1.37;;;;;;;;;;5020834;28;20301;-66
2022/04/03 11:12:11;;;;;;;1.40;1.30;;;;;;;;;;5020955;28;20778;-66
2022/04/03 11:14:59;;;;;;;2.27;1.53;;;;;;;;;;5022011;28;20707;-67
2022/04/03 11:17:52;;;;;;;1.47;1.37;;;;;;;;;;5020987;28;20234;-66
2022/04/03 11:20:42;;;;;;;1.83;1.73;;;;;;;;;;5025653;28;20669;-66
2022/04/03 11:23:30;;;;;;;1.43;1.33;;;;;;;;;;5022432;28;20219;-66
2022/04/03 11:26:18;;;;;;;1.43;1.43;;;;;;;;;;5022290;28;20253;-66
2022/04/03 11:29:06;;;;;;;1.50;1.40;;;;;;;;;;5023322;28;20207;-66
2022/04/03 11:31:55;;;;;;;1.53;1.43;;;;;;;;;;5025118;28;20729;-66
2022/04/03 11:34:42;;;;;;;1.60;1.50;;;;;;;;;;5025770;28;20219;-66
2022/04/03 11:37:29;;;;;;;1.40;1.40;;;;;;;;;;5025375;28;20257;-67
2022/04/03 11:40:16;;;;;;;1.47;1.37;;;;;;;;;;5023658;28;20681;-66
2022/04/03 11:43:15;;;;;;;1.50;1.40;;;;;;;;;;5021565;28;20204;-67
2022/04/03 11:46:04;;;;;;;1.50;1.40;;;;;;;;;;5024118;28;20231;-67
2022/04/03 11:48:53;;;;;;;1.90;1.13;;;;;;;;;;5024613;28;20243;-67
2022/04/03 11:51:40;;;;;;;2.10;1.17;;;;;;;;;;5022793;28;20302;-67
2022/04/03 11:54:27;;;;;;;1.63;1.20;;;;;;;;;;5021356;28;20843;-67
2022/04/03 11:57:14;;;;;;;2.00;1.30;;;;;;;;;;5022762;28;20266;-67
2022/04/03 12:00:01;;;;;;;1.10;1.10;;;;;;;;;;5021474;28;20215;-66
2022/04/03 12:02:48;;;;;;;2.47;1.30;;;;;;;;;;5022955;28;20211;-66
2022/04/03 12:05:36;;;;;;;0.93;0.93;;;;;;;;;;5022836;28;20853;-67
2022/04/03 12:08:37;;;;;;;1.40;1.30;;;;;;;;;;5025299;28;20209;-67
2022/04/03 12:11:26;;;;;;;1.20;1.20;;;;;;;;;;5024953;28;20228;-66
2022/04/03 12:14:22;;;;;;;1.83;1.20;;;;;;;;;;5026512;28;20602;-67
2022/04/03 12:17:10;;;;;;;1.63;1.30;;;;;;;;;;5024575;28;20241;-67
2022/04/03 12:19:57;;;;;;;1.17;1.07;;;;;;;;;;5025777;28;20225;-68
2022/04/03 12:22:50;;;;;;;1.13;1.10;;;;;;;;;;5027273;28;20385;-66
2022/04/03 12:25:37;;;;;;;1.20;1.03;;;;;;;;;;5023549;28;20353;-67
2022/04/03 12:28:24;;;;;;;0.97;0.97;;;;;;;;;;5025810;28;20212;-67
2022/04/03 12:31:13;;;;;;;1.07;0.90;;;;;;;;;;5019808;28;20793;-67
2022/04/03 12:34:06;;;;;;;1.07;1.00;;;;;;;;;;5022881;28;20741;-67
2022/04/03 12:36:55;;;;;;;2.43;0.87;;;;;;;;;;5019516;28;20236;-66
2022/04/03 12:39:44;;;;;;;0.80;0.80;;;;;;;;;;5018762;28;20380;-66
2022/04/03 12:42:32;;;;;;;1.17;1.07;;;;;;;;;;5023972;28;20593;-67
2022/04/03 12:45:21;;;;;;;1.23;0.70;;;;;;;;;;5023175;28;20291;-67
2022/04/03 12:48:08;;;;;;;0.70;0.70;;;;;;;;;;5021924;28;20230;-67
2022/04/03 12:50:55;;;;;;;1.07;0.80;;;;;;;;;;5023220;28;20336;-67
2022/04/03 12:53:50;;;;;;;0.87;0.87;;;;;;;;;;5022523;28;20223;-67
2022/04/03 12:59:45;;;;;;;0.60;0.60;;;;;;;;;;5021373;28;20344;-66
2022/04/03 13:02:38;;;;;;;1.03;0.63;;;;;;;;;;5023339;28;20206;-67
2022/04/03 13:05:33;;;;;;;0.60;0.60;;;;;;;;;;5020902;28;20212;-67
2022/04/03 13:08:20;;;;;;;0.50;0.50;;;;;;;;;;5025159;28;20262;-67
2022/04/03 13:11:07;;;;;;;0.80;0.80;;;;;;;;;;5024377;28;20333;-67
2022/04/03 13:13:56;;;;;;;0.60;0.60;;;;;;;;;;5024352;28;20700;-67
2022/04/03 13:16:43;;;;;;;0.60;0.60;;;;;;;;;;5024788;28;20345;-67
2022/04/03 13:19:32;;;;;;;0.60;0.60;;;;;;;;;;5024377;28;20364;-67
2022/04/03 13:22:19;;;;;;;1.20;0.60;;;;;;;;;;5023973;28;20667;-67
2022/04/03 13:25:07;;;;;;;0.67;0.67;;;;;;;;;;5027223;28;20285;-67
2022/04/03 13:27:54;;;;;;;0.70;0.60;;;;;;;;;;5018512;28;20275;-67
2022/04/03 13:30:43;;;;;;;0.50;0.50;;;;;;;;;;5020977;28;20320;-67
2022/04/03 13:33:30;;;;;;;0.40;0.40;;;;;;;;;;5018150;28;20285;-67
2022/04/03 13:36:17;;;;;;;0.40;0.40;;;;;;;;;;5024368;28;20725;-67
2022/04/03 13:39:06;;;;;;;0.40;0.40;;;;;;;;;;5020708;28;20612;-67
2022/04/03 13:41:55;;;;;;;0.40;0.40;;;;;;;;;;5021840;28;20800;-67
2022/04/03 13:44:43;;;;;;;0.43;0.43;;;;;;;;;;5021520;28;20657;-67
2022/04/03 13:47:31;;;;;;;0.80;0.63;;;;;;;;;;5020526;28;20201;-68
2022/04/03 13:50:18;;;;;;;0.50;0.50;;;;;;;;;;5020671;28;20224;-67
2022/04/03 13:53:05;;;;;;;0.70;0.70;;;;;;;;;;5021352;28;20276;-67
2022/04/03 13:55:52;;;;;;;0.40;0.40;;;;;;;;;;5022189;28;20276;-68
2022/04/03 13:58:40;;;;;;;0.40;0.40;;;;;;;;;;5022867;28;20228;-67
2022/04/03 14:01:27;;;;;;;0.40;0.40;;;;;;;;;;5019450;28;20208;-67
2022/04/03 14:04:15;;;;;;;0.50;0.50;;;;;;;;;;5025996;28;20212;-67
2022/04/03 14:07:02;;;;;;;0.37;0.33;;;;;;;;;;5023372;28;20254;-66
2022/04/03 14:09:49;;;;;;;0.60;0.60;;;;;;;;;;5024444;28;20262;-67
2022/04/03 14:12:36;;;;;;;0.60;0.60;;;;;;;;;;5023538;28;20236;-67
2022/04/03 14:15:23;;;;;;;0.50;0.30;;;;;;;;;;5023735;28;20288;-67
2022/04/03 14:18:10;;;;;;;0.40;0.40;;;;;;;;;;5017030;28;20232;-67
2022/04/03 14:21:00;;;;;;;0.50;0.50;;;;;;;;;;5025069;28;20268;-67
2022/04/03 14:23:47;;;;;;;0.30;0.30;;;;;;;;;;5019625;28;20619;-67
2022/04/03 14:26:34;;;;;;;0.50;0.50;;;;;;;;;;5023495;28;20203;-67
2022/04/03 14:29:21;;;;;;;0.40;0.40;;;;;;;;;;5024316;28;20202;-67
2022/04/03 14:32:08;;;;;;;0.60;0.60;;;;;;;;;;5014554;28;20209;-66
2022/04/03 14:34:55;;;;;;;0.60;0.60;;;;;;;;;;5021774;28;20851;-66
2022/04/03 14:37:44;;;;;;;0.40;0.40;;;;;;;;;;5021707;28;20210;-66
2022/04/03 14:40:31;;;;;;;0.43;0.43;;;;;;;;;;5018354;28;20220;-67
2022/04/03 14:43:18;;;;;;;0.50;0.50;;;;;;;;;;5019809;28;20295;-67
2022/04/03 14:46:06;;;;;;;0.40;0.40;;;;;;;;;;5017525;28;20245;-66
2022/04/03 14:48:52;;;;;;;0.50;0.50;;;;;;;;;;5021159;28;20224;-66
2022/04/03 14:51:39;;;;;;;0.40;0.40;;;;;;;;;;5022490;28;20263;-67
2022/04/03 14:54:28;;;;;;;0.30;0.30;;;;;;;;;;5019140;28;20723;-67
2022/04/03 14:57:15;;;;;;;0.43;0.33;;;;;;;;;;5017480;28;20300;-67
2022/04/03 15:00:05;;;;;;;0.50;0.50;;;;;;;;;;5018062;28;20260;-66
2022/04/03 15:02:52;;;;;;;0.40;0.40;;;;;;;;;;5017863;28;20203;-67
2022/04/03 15:05:39;;;;;;;0.50;0.50;;;;;;;;;;5016549;28;20672;-66
2022/04/03 15:08:26;;;;;;;0.33;0.33;;;;;;;;;;5023530;28;20217;-66
2022/04/03 15:11:15;;;;;;;0.37;0.37;;;;;;;;;;5019307;28;20742;-66
2022/04/03 15:14:02;;;;;;;0.27;0.27;;;;;;;;;;5018993;28;20216;-66
2022/04/03 15:16:49;;;;;;;0.50;0.30;;;;;;;;;;5022351;28;20719;-67
2022/04/03 15:19:36;;;;;;;0.17;0.17;;;;;;;;;;5020997;28;20231;-67
2022/04/03 15:22:23;;;;;;;0.30;0.30;;;;;;;;;;5015343;28;21073;-67
2022/04/03 15:25:10;;;;;;;0.20;0.20;;;;;;;;;;5024132;28;20292;-66
2022/04/03 15:27:59;;;;;;;0.63;0.40;;;;;;;;;;5021620;28;20227;-66
2022/04/03 15:30:47;;;;;;;0.20;0.20;;;;;;;;;;5022296;28;20212;-69
2022/04/03 15:33:34;;;;;;;0.70;0.50;;;;;;;;;;5022847;28;20250;-68
2022/04/03 15:36:24;;;;;;;2.17;0.40;;;;;;;;;;5019555;28;20210;-69
2022/04/03 15:39:11;;;;;;;0.30;0.30;;;;;;;;;;5018417;28;20653;-68
2022/04/03 15:41:58;;;;;;;1.60;0.47;;;;;;;;;;5023079;28;20591;-68
2022/04/03 15:44:47;;;;;;;0.30;0.30;;;;;;;;;;5024014;28;20305;-68
2022/04/03 15:47:34;;;;;;;0.37;0.37;;;;;;;;;;5023947;28;20573;-68
2022/04/03 15:50:21;;;;;;;0.60;0.33;;;;;;;;;;5020080;28;20218;-68
2022/04/03 15:53:09;;;;;;;0.40;0.40;;;;;;;;;;5019779;28;20237;-68
2022/04/03 15:55:56;;;;;;;0.30;0.30;;;;;;;;;;5021734;28;20302;-68
2022/04/03 15:58:43;;;;;;;0.90;0.40;;;;;;;;;;5025041;28;20219;-68
2022/04/03 16:01:31;;;;;;;0.30;0.30;;;;;;;;;;5026628;28;20242;-68
2022/04/03 16:04:18;;;;;;;0.40;0.40;;;;;;;;;;5023062;28;20318;-68
2022/04/03 16:07:05;;;;;;;0.43;0.43;;;;;;;;;;5025388;28;20214;-68
2022/04/03 16:09:52;;;;;;;0.33;0.33;;;;;;;;;;5019779;28;20202;-68
2022/04/03 16:12:39;;;;;;;0.90;0.77;;;;;;;;;;5027569;28;20292;-68
2022/04/03 16:15:27;;;;;;;0.87;0.30;;;;;;;;;;5025458;28;20627;-68
2022/04/03 16:18:16;;;;;;;0.37;0.37;;;;;;;;;;5018872;28;20307;-68
2022/04/03 16:21:03;;;;;;;0.93;0.50;;;;;;;;;;5023013;28;20210;-68
2022/04/03 16:23:50;;;;;;;0.40;0.40;;;;;;;;;;5021634;28;20210;-68
2022/04/03 16:26:37;;;;;;;0.40;0.40;;;;;;;;;;5021055;28;20212;-67
2022/04/03 16:29:24;;;;;;;0.40;0.40;;;;;;;;;;5023753;28;20214;-68
2022/04/03 16:32:11;;;;;;;2.60;0.50;;;;;;;;;;5020038;28;20284;-68
2022/04/03 16:34:59;;;;;;;0.97;0.57;;;;;;;;;;5021780;28;20205;-68
2022/04/03 16:37:46;;;;;;;1.90;0.50;;;;;;;;;;5024363;28;20209;-68
2022/04/03 16:40:34;;;;;;;0.30;0.30;;;;;;;;;;5024964;28;20257;-70
2022/04/03 16:43:22;;;;;;;0.40;0.40;;;;;;;;;;5026986;28;20202;-68
2022/04/03 16:46:09;;;;;;;0.33;0.33;;;;;;;;;;5024423;28;20299;-68
2022/04/03 16:48:56;;;;;;;0.40;0.40;;;;;;;;;;5021735;28;20267;-68
2022/04/03 16:51:44;;;;;;;0.37;0.33;;;;;;;;;;5020184;28;20690;-68